Time;durP1;ratioP1;P1;durP2;ratioP2;P2;SDS_P1;SDS_P2;PMS_P1;PMS_P2;Temp;Humidity;BMP_temperature;BMP_pressure;BME280_temperature;BME280_humidity;BME280_pressure;Samples;Min_cycle;Max_cycle;Signal;HPM_P1;HPM_P2
2022/07/05 00:02:28;;;;;;;5.40;4.70;;;;;;;21.87;64.43;100448.83;1678214;83;21112;-68
2022/07/05 00:05:05;;;;;;;6.93;4.87;;;;;;;21.82;64.65;100448.48;1669742;83;21290;-68
2022/07/05 00:07:35;;;;;;;5.83;4.67;;;;;;;21.79;64.83;100454.59;1680213;83;22418;-69
2022/07/05 00:10:07;;;;;;;7.27;4.67;;;;;;;21.78;64.95;100448.36;1716997;83;21004;-69
2022/07/05 00:12:37;;;;;;;7.22;5.00;;;;;;;21.79;65.02;100445.07;1697924;83;24329;-69
2022/07/05 00:15:14;;;;;;;6.90;5.35;;;;;;;21.82;65.10;100447.69;1689362;83;21118;-69
2022/07/05 00:17:51;;;;;;;6.83;4.80;;;;;;;21.85;65.18;100451.07;1667545;84;21061;-69
2022/07/05 00:20:26;;;;;;;6.60;4.90;;;;;;;21.90;65.28;100454.95;1706722;83;21156;-69
2022/07/05 00:23:04;;;;;;;6.13;4.80;;;;;;;21.92;65.31;100455.42;1693823;83;21644;-69
2022/07/05 00:25:38;;;;;;;7.23;5.23;;;;;;;21.95;65.32;100454.18;1702133;83;21311;-69
2022/07/05 00:28:10;;;;;;;5.47;4.87;;;;;;;21.97;65.39;100453.83;1635117;87;21125;-69
2022/07/05 00:30:46;;;;;;;6.47;4.87;;;;;;;21.97;65.44;100453.27;1696173;83;21107;-69
2022/07/05 00:33:21;;;;;;;6.07;4.90;;;;;;;21.97;65.55;100453.83;1634592;85;21158;-69
2022/07/05 00:35:56;;;;;;;5.97;5.10;;;;;;;21.96;65.63;100454.97;1644681;85;21038;-69
2022/07/05 00:38:25;;;;;;;6.70;5.13;;;;;;;21.97;65.82;100464.71;1644411;85;21621;-69
2022/07/05 00:41:03;;;;;;;6.63;5.50;;;;;;;21.97;66.12;100474.23;1687881;83;20995;-69
2022/07/05 00:43:41;;;;;;;7.83;5.60;;;;;;;21.96;66.58;100472.65;1688224;83;21003;-69
2022/07/05 00:46:21;;;;;;;7.50;5.20;;;;;;;21.95;66.88;100473.22;1719465;82;22151;-69
2022/07/05 00:48:58;;;;;;;6.57;5.20;;;;;;;21.96;67.09;100468.57;1703090;83;21173;-68
2022/07/05 00:51:38;;;;;;;6.37;5.50;;;;;;;21.93;67.27;100470.03;1679847;83;21110;-69
2022/07/05 01:14:40;;;;;;;7.10;5.30;;;;;;;21.78;68.51;100470.11;1675451;84;21051;-69
2022/07/05 01:17:22;;;;;;;7.03;5.20;;;;;;;21.77;68.67;100471.78;1659500;84;21035;-69
2022/07/05 01:19:56;;;;;;;6.13;5.17;;;;;;;21.74;68.71;100469.16;1689121;84;21051;-69
2022/07/05 01:23:02;;;;;;;7.08;5.40;;;;;;;21.73;68.79;100460.00;1618074;86;28403;-69
2022/07/05 01:25:34;;;;;;;7.30;4.90;;;;;;;21.73;68.88;100467.58;1655512;85;21053;-69
2022/07/05 01:28:06;;;;;;;9.30;5.00;;;;;;;21.71;68.78;100461.67;1659352;85;21227;-69
2022/07/05 01:30:35;;;;;;;5.87;4.83;;;;;;;21.67;68.68;100464.84;1666243;85;21061;-69
2022/07/05 01:33:15;;;;;;;5.53;4.67;;;;;;;21.64;68.76;100464.14;1618349;85;21098;-69
2022/07/05 01:35:48;;;;;;;6.80;5.17;;;;;;;21.65;68.77;100467.65;1667559;85;21601;-69
2022/07/05 01:38:22;;;;;;;7.73;5.03;;;;;;;21.62;68.71;100465.06;1621476;86;21299;-69
2022/07/05 01:40:53;;;;;;;6.90;5.10;;;;;;;21.59;68.69;100464.36;1656592;85;21938;-69
2022/07/05 01:43:19;;;;;;;7.43;5.30;;;;;;;21.53;68.57;100465.13;1654215;85;20967;-69
2022/07/05 01:45:49;;;;;;;6.20;5.10;;;;;;;21.52;68.44;100462.19;1652990;85;21075;-68
2022/07/05 01:48:19;;;;;;;6.07;4.90;;;;;;;21.52;68.36;100462.75;1650458;85;21094;-68
2022/07/05 01:50:52;;;;;;;7.03;4.90;;;;;;;21.52;68.23;100470.34;1676609;85;21154;-69
2022/07/05 01:53:29;;;;;;;6.83;4.83;;;;;;;21.53;68.09;100466.48;1667096;85;21284;-68
2022/07/05 01:55:58;;;;;;;7.07;5.30;;;;;;;21.53;67.97;100467.05;1671017;85;21020;-68
2022/07/05 01:58:25;;;;;;;6.83;5.00;;;;;;;21.52;67.94;100475.77;1677046;85;21079;-69
2022/07/05 02:00:53;;;;;;;6.03;5.13;;;;;;;21.53;67.88;100471.13;1673822;85;21059;-68
2022/07/05 02:03:20;;;;;;;6.50;4.90;;;;;;;21.48;67.89;100478.11;1658946;85;21506;-69
2022/07/05 02:05:48;;;;;;;7.10;5.13;;;;;;;21.45;67.88;100476.84;1674542;85;21300;-69
2022/07/05 02:08:17;;;;;;;8.03;5.30;;;;;;;21.45;67.78;100476.05;1673973;84;21063;-69
2022/07/05 02:10:45;;;;;;;5.60;4.90;;;;;;;21.44;67.53;100480.70;1675091;85;21071;-69
2022/07/05 02:13:12;;;;;;;8.80;5.50;;;;;;;21.46;67.37;100472.23;1674955;85;21075;-69
2022/07/05 02:15:40;;;;;;;7.23;5.43;;;;;;;21.45;67.29;100471.41;1654164;85;21118;-69
2022/07/05 02:18:08;;;;;;;6.47;5.33;;;;;;;21.44;67.19;100476.63;1665103;85;21129;-69
2022/07/05 02:20:38;;;;;;;5.80;4.90;;;;;;;21.45;67.13;100468.69;1606219;88;21099;-69
2022/07/05 02:23:07;;;;;;;8.57;5.67;;;;;;;21.46;67.11;100469.52;1615468;88;21012;-68
2022/07/05 02:25:35;;;;;;;6.97;5.53;;;;;;;21.47;67.12;100470.52;1621350;88;21685;-69
2022/07/05 02:28:04;;;;;;;7.20;5.93;;;;;;;21.48;67.25;100462.59;1653934;86;21062;-69
2022/07/05 02:30:33;;;;;;;8.63;5.67;;;;;;;21.52;67.35;100464.11;1653788;86;21180;-68
2022/07/05 02:33:00;;;;;;;7.13;6.10;;;;;;;21.54;67.36;100468.06;1653876;86;21482;-69
2022/07/05 02:35:27;;;;;;;8.73;6.17;;;;;;;21.58;67.57;100462.75;1653890;86;21050;-69
2022/07/05 02:37:54;;;;;;;7.90;5.73;;;;;;;21.63;67.82;100465.28;1653770;85;21468;-70
2022/07/05 02:40:20;;;;;;;8.20;6.10;;;;;;;21.68;67.85;100466.42;1654405;86;21479;-68
2022/07/05 02:42:49;;;;;;;8.40;6.03;;;;;;;21.71;67.98;100475.27;1646188;87;21245;-69
2022/07/05 02:45:16;;;;;;;9.60;6.80;;;;;;;21.73;67.97;100471.66;1646209;85;21071;-68
2022/07/05 02:47:44;;;;;;;12.00;6.60;;;;;;;21.78;67.85;100469.29;1646136;87;21049;-69
2022/07/05 02:50:11;;;;;;;7.43;6.53;;;;;;;21.86;67.66;100467.06;1646173;87;21028;-69
2022/07/05 02:52:40;;;;;;;8.00;6.70;;;;;;;21.93;67.41;100470.59;1624115;86;21102;-69
2022/07/05 02:55:07;;;;;;;8.00;6.63;;;;;;;21.99;67.19;100470.62;1630741;86;21863;-71
2022/07/05 02:57:38;;;;;;;8.40;6.57;;;;;;;22.06;67.13;100473.58;1669955;85;21177;-69
2022/07/05 03:00:07;;;;;;;10.03;7.03;;;;;;;22.14;67.12;100476.76;1660894;85;21080;-69
2022/07/05 03:02:36;;;;;;;11.60;7.40;;;;;;;22.22;67.09;100473.77;1659489;85;21168;-69
2022/07/05 03:05:04;;;;;;;11.17;7.90;;;;;;;22.31;66.96;100473.11;1658330;85;21022;-70
2022/07/05 03:07:32;;;;;;;10.07;8.03;;;;;;;22.40;66.97;100471.05;1656903;85;21127;-69
2022/07/05 03:09:59;;;;;;;10.53;8.50;;;;;;;22.51;67.11;100475.50;1651974;85;21078;-70
2022/07/05 03:12:25;;;;;;;9.37;7.57;;;;;;;22.60;67.40;100479.46;1630730;87;21486;-68
2022/07/05 03:14:53;;;;;;;10.47;7.47;;;;;;;22.71;67.57;100483.34;1632845;87;21513;-69
2022/07/05 03:17:20;;;;;;;10.77;7.70;;;;;;;22.85;67.53;100480.27;1630873;87;21175;-70
2022/07/05 03:19:47;;;;;;;9.17;8.00;;;;;;;23.01;67.39;100488.57;1606009;87;21230;-69
2022/07/05 03:22:14;;;;;;;9.77;8.10;;;;;;;23.13;67.21;100489.34;1631089;87;21130;-68
2022/07/05 03:24:41;;;;;;;10.13;7.90;;;;;;;23.27;66.97;100482.73;1632356;87;21037;-69
2022/07/05 03:27:08;;;;;;;9.27;7.63;;;;;;;23.36;66.72;100481.46;1633034;87;20979;-69
2022/07/05 03:29:35;;;;;;;9.77;7.57;;;;;;;23.41;66.50;100476.33;1631819;87;21115;-69
2022/07/05 03:32:02;;;;;;;11.07;7.67;;;;;;;23.44;66.35;100477.58;1633456;87;21275;-69
2022/07/05 03:34:29;;;;;;;8.33;7.17;;;;;;;23.50;66.37;100481.08;1640602;87;21013;-69
2022/07/05 03:36:57;;;;;;;8.33;7.33;;;;;;;23.56;66.13;100481.06;1648536;87;21098;-70
2022/07/05 03:39:23;;;;;;;9.50;7.97;;;;;;;23.61;65.77;100481.37;1613199;87;21549;-69
2022/07/05 03:41:52;;;;;;;9.13;7.93;;;;;;;23.67;65.40;100482.71;1648260;87;21037;-69
2022/07/05 03:44:21;;;;;;;10.87;8.83;;;;;;;23.77;65.17;100484.97;1636921;87;21140;-68
2022/07/05 03:46:47;;;;;;;9.40;7.87;;;;;;;23.86;64.83;100476.64;1620797;88;21069;-69
2022/07/05 03:49:15;;;;;;;9.27;7.47;;;;;;;23.92;64.57;100483.98;1664745;85;21102;-70
2022/07/05 03:51:41;;;;;;;10.63;8.00;;;;;;;24.01;64.39;100487.35;1654004;85;21094;-70
2022/07/05 03:54:08;;;;;;;9.47;8.03;;;;;;;24.13;64.20;100491.96;1632142;87;21033;-69
2022/07/05 03:56:36;;;;;;;10.10;7.93;;;;;;;24.25;64.01;100481.77;1663690;85;21090;-69
2022/07/05 03:59:04;;;;;;;10.23;7.70;;;;;;;24.37;63.82;100475.99;1656554;85;21103;-70
2022/07/05 04:01:31;;;;;;;12.63;7.83;;;;;;;24.50;63.78;100487.08;1658169;85;21054;-70
2022/07/05 04:03:58;;;;;;;9.23;7.87;;;;;;;24.62;63.74;100476.06;1628963;85;21481;-69
2022/07/05 04:06:27;;;;;;;8.30;7.10;;;;;;;24.77;63.68;100478.55;1655218;85;21457;-69
2022/07/05 04:08:55;;;;;;;8.60;7.10;;;;;;;24.89;63.60;100474.34;1659260;85;22268;-69
2022/07/05 04:11:22;;;;;;;7.77;6.93;;;;;;;25.03;63.21;100478.75;1631971;85;21623;-69
2022/07/05 04:13:51;;;;;;;8.40;6.80;;;;;;;25.17;62.86;100476.96;1654879;85;21173;-68
2022/07/05 04:16:17;;;;;;;8.53;6.67;;;;;;;25.33;62.03;100475.52;1653384;86;21031;-69
2022/07/05 04:18:45;;;;;;;7.77;6.47;;;;;;;25.51;61.38;100475.89;1653025;86;21091;-69
2022/07/05 04:21:12;;;;;;;6.97;6.13;;;;;;;25.63;60.74;100474.94;1653751;86;21243;-69
2022/07/05 04:23:40;;;;;;;6.00;5.40;;;;;;;25.73;59.50;100477.09;1653632;86;21069;-69
2022/07/05 04:26:07;;;;;;;6.73;6.03;;;;;;;25.84;57.96;100478.13;1653966;86;21135;-70
2022/07/05 04:28:39;;;;;;;6.70;6.00;;;;;;;25.92;57.43;100481.20;1654765;85;21062;-69
2022/07/05 04:31:08;;;;;;;7.07;5.90;;;;;;;26.03;56.97;100472.39;1659608;85;21234;-69
2022/07/05 04:33:36;;;;;;;7.30;5.97;;;;;;;26.16;56.35;100469.72;1655069;85;21129;-68
2022/07/05 04:36:06;;;;;;;7.87;5.67;;;;;;;26.30;55.24;100476.80;1657892;85;21583;-69
2022/07/05 04:38:33;;;;;;;6.53;5.87;;;;;;;26.42;54.55;100479.91;1658362;85;21042;-70
2022/07/05 04:41:00;;;;;;;8.10;6.27;;;;;;;26.45;54.16;100476.44;1656565;85;21073;-69
2022/07/05 04:43:28;;;;;;;6.70;5.90;;;;;;;26.39;54.10;100475.16;1658514;85;21018;-69
2022/07/05 04:45:55;;;;;;;8.40;6.07;;;;;;;26.37;54.12;100472.80;1653794;85;22098;-69
2022/07/05 04:48:23;;;;;;;7.13;5.60;;;;;;;26.42;53.94;100482.09;1659616;85;21047;-69
2022/07/05 04:50:51;;;;;;;6.63;5.50;;;;;;;26.51;53.80;100478.33;1659288;85;21563;-68
2022/07/05 04:53:18;;;;;;;7.47;5.73;;;;;;;26.63;53.62;100476.19;1632264;85;21161;-69
2022/07/05 04:55:44;;;;;;;6.20;5.60;;;;;;;26.77;53.09;100467.97;1658642;85;21059;-70
2022/07/05 04:58:11;;;;;;;6.67;5.80;;;;;;;26.83;52.63;100470.02;1658922;85;21245;-70
2022/07/05 05:00:38;;;;;;;6.40;5.60;;;;;;;26.87;52.47;100476.92;1658096;85;21592;-68
2022/07/05 05:03:04;;;;;;;7.50;6.00;;;;;;;26.84;52.10;100474.34;1657781;85;21564;-69
2022/07/05 05:05:31;;;;;;;7.60;5.90;;;;;;;26.87;52.27;100474.18;1657158;85;21180;-69
2022/07/05 05:07:59;;;;;;;7.90;6.10;;;;;;;26.93;52.20;100478.77;1657406;85;21095;-69
2022/07/05 05:10:26;;;;;;;8.50;6.27;;;;;;;26.94;52.27;100476.23;1658082;85;21215;-68
2022/07/05 05:12:53;;;;;;;6.87;5.67;;;;;;;26.95;52.27;100479.17;1656718;85;22018;-69
2022/07/05 05:15:20;;;;;;;7.10;6.07;;;;;;;26.92;52.63;100477.98;1658195;85;21089;-69
2022/07/05 05:17:46;;;;;;;7.53;6.20;;;;;;;26.95;52.57;100484.10;1653802;85;21101;-69
2022/07/05 05:20:16;;;;;;;6.83;5.47;;;;;;;26.99;52.58;100484.16;1659082;85;21030;-69
2022/07/05 05:22:43;;;;;;;6.67;5.97;;;;;;;27.05;52.54;100486.20;1659081;85;21866;-69
2022/07/05 05:25:09;;;;;;;6.90;6.20;;;;;;;27.07;52.39;100492.67;1667561;85;21561;-69
2022/07/05 05:27:48;;;;;;;8.03;5.80;;;;;;;27.09;52.52;100495.84;1661789;84;21030;-69
2022/07/05 05:30:17;;;;;;;7.93;6.13;;;;;;;27.17;52.13;100491.27;1655221;85;21041;-69
2022/07/05 05:32:46;;;;;;;7.00;5.73;;;;;;;27.18;51.84;100490.09;1659149;85;21541;-70
2022/07/05 05:35:13;;;;;;;7.33;6.20;;;;;;;27.23;51.64;100497.42;1659168;85;21274;-70
2022/07/05 05:37:52;;;;;;;6.67;5.83;;;;;;;27.19;51.81;100494.44;1660468;85;20984;-69
2022/07/05 05:40:21;;;;;;;8.20;6.30;;;;;;;27.22;51.77;100497.23;1657740;85;21053;-69
2022/07/05 05:42:48;;;;;;;7.10;5.93;;;;;;;27.31;51.65;100492.82;1654519;85;21555;-69
2022/07/05 05:45:15;;;;;;;6.70;5.57;;;;;;;27.46;51.33;100493.80;1658051;85;21049;-69
2022/07/05 05:47:52;;;;;;;6.67;6.03;;;;;;;27.57;51.04;100496.08;1658099;85;21100;-69
2022/07/05 05:50:25;;;;;;;6.97;5.90;;;;;;;27.68;50.72;100494.86;1659183;85;21086;-69
2022/07/05 05:52:52;;;;;;;8.33;6.40;;;;;;;27.79;50.56;100493.83;1659688;85;21073;-69
2022/07/05 05:55:20;;;;;;;6.97;6.27;;;;;;;27.90;50.43;100495.89;1605542;85;21475;-69
2022/07/05 05:57:46;;;;;;;7.83;6.47;;;;;;;27.96;49.54;100493.80;1657725;85;21168;-70
2022/07/05 06:00:14;;;;;;;6.93;6.23;;;;;;;27.91;49.62;100493.38;1659025;85;21088;-70
2022/07/05 06:02:43;;;;;;;7.17;6.27;;;;;;;27.90;49.85;100496.67;1658692;85;20978;-69
2022/07/05 06:05:09;;;;;;;7.03;6.33;;;;;;;27.94;49.82;100487.13;1660331;85;21038;-69
2022/07/05 06:07:53;;;;;;;8.53;6.00;;;;;;;27.95;50.30;100485.37;1658224;85;22130;-69
2022/07/05 06:10:23;;;;;;;9.10;6.23;;;;;;;28.06;50.53;100484.09;1657955;85;21154;-69
2022/07/05 06:12:50;;;;;;;8.73;6.50;;;;;;;28.18;50.30;100481.67;1658970;85;21160;-68
2022/07/05 06:15:17;;;;;;;8.07;6.60;;;;;;;28.31;50.20;100482.17;1654488;85;21101;-70
2022/07/05 06:17:44;;;;;;;10.00;7.60;;;;;;;28.49;50.66;100484.50;1658034;85;21073;-68
2022/07/05 06:20:14;;;;;;;8.67;7.07;;;;;;;28.65;49.71;100480.89;1657886;85;21058;-68
2022/07/05 06:22:41;;;;;;;14.43;8.70;;;;;;;28.82;49.31;100484.15;1659544;85;21640;-68
2022/07/05 06:25:08;;;;;;;11.40;7.60;;;;;;;28.92;49.24;100478.73;1659089;85;21287;-68
2022/07/05 06:27:42;;;;;;;9.83;8.53;;;;;;;29.10;49.40;100482.98;1659264;85;21155;-69
2022/07/05 06:30:09;;;;;;;10.40;8.00;;;;;;;29.26;48.85;100477.76;1653785;85;21102;-69
2022/07/05 06:32:37;;;;;;;17.50;10.50;;;;;;;29.42;48.08;100486.48;1632041;86;21104;-68
2022/07/05 06:35:04;;;;;;;23.40;11.37;;;;;;;29.54;47.99;100487.48;1657652;85;21046;-68
2022/07/05 06:37:54;;;;;;;11.93;7.87;;;;;;;29.67;47.64;100482.45;1659723;85;21928;-69
2022/07/05 06:40:30;;;;;;;7.10;6.10;;;;;;;29.81;47.04;100477.56;1659136;85;21078;-70
2022/07/05 06:42:59;;;;;;;7.33;5.97;;;;;;;29.96;46.05;100481.14;1657040;85;21177;-68
2022/07/05 06:45:34;;;;;;;7.00;5.80;;;;;;;30.02;44.08;100483.12;1654035;85;21117;-69
2022/07/05 06:48:03;;;;;;;8.50;6.50;;;;;;;30.00;44.36;100481.93;1659165;85;21041;-69
2022/07/05 06:50:35;;;;;;;8.70;6.27;;;;;;;30.08;44.70;100480.18;1659188;85;21165;-69
2022/07/05 06:53:03;;;;;;;10.95;6.42;;;;;;;30.18;44.65;100477.84;1659213;85;21784;-69
2022/07/05 06:55:29;;;;;;;9.67;6.53;;;;;;;30.23;45.15;100484.34;1656741;85;21060;-68
2022/07/05 06:58:07;;;;;;;16.13;10.33;;;;;;;30.31;44.63;100483.19;1657164;85;21117;-69
2022/07/05 07:00:34;;;;;;;20.30;10.07;;;;;;;30.42;44.63;100481.20;1655438;85;21066;-68
2022/07/05 07:03:01;;;;;;;14.33;8.90;;;;;;;30.53;43.82;100481.19;1655537;85;21072;-69
2022/07/05 07:05:27;;;;;;;12.43;7.27;;;;;;;30.57;43.58;100474.51;1658846;85;21483;-69
2022/07/05 07:10:40;;;;;;;11.17;7.07;;;;;;;30.73;43.59;100484.31;1657126;85;21052;-69
2022/07/05 07:13:08;;;;;;;17.97;9.57;;;;;;;30.79;42.66;100482.17;1655692;85;21047;-68
2022/07/05 07:15:42;;;;;;;9.10;6.57;;;;;;;30.84;43.07;100487.89;1666138;85;21572;-68
2022/07/05 07:18:15;;;;;;;;;;;;;;;30.91;42.10;100482.95;1649630;85;21506;-69
2022/07/05 07:20:43;;;;;;;7.60;5.90;;;;;;;30.86;42.04;100481.96;1661938;85;20169;-69
2022/07/05 07:23:10;;;;;;;7.67;5.73;;;;;;;30.80;42.29;100487.09;1654202;85;21017;-68
2022/07/05 07:25:48;;;;;;;10.00;5.40;;;;;;;30.86;42.06;100486.09;1649918;85;21021;-68
2022/07/05 07:28:14;;;;;;;5.40;4.90;;;;;;;30.81;41.79;100481.19;1655214;85;21258;-69
2022/07/05 07:30:41;;;;;;;7.20;5.50;;;;;;;30.79;41.59;100481.39;1653714;86;21478;-68
2022/07/05 07:33:07;;;;;;;7.10;5.33;;;;;;;30.78;41.72;100481.20;1653895;85;21081;-68
2022/07/05 07:35:35;;;;;;;7.03;5.07;;;;;;;30.74;41.33;100477.64;1627919;86;21001;-68
2022/07/05 07:38:04;;;;;;;6.87;5.13;;;;;;;30.75;40.54;100475.85;1659255;85;21042;-69
2022/07/05 07:40:31;;;;;;;6.67;4.90;;;;;;;30.82;40.90;100483.35;1659082;85;21607;-68
2022/07/05 07:42:57;;;;;;;5.77;4.87;;;;;;;30.94;41.00;100476.05;1657931;85;21053;-68
2022/07/05 07:45:26;;;;;;;6.97;5.30;;;;;;;31.14;41.21;100474.22;1658069;85;21088;-70
2022/07/05 07:47:53;;;;;;;6.30;5.27;;;;;;;31.29;40.49;100474.34;1658668;85;21085;-69
2022/07/05 07:50:19;;;;;;;8.03;5.63;;;;;;;31.47;40.43;100470.95;1659726;85;21080;-69
2022/07/05 07:52:47;;;;;;;8.90;5.67;;;;;;;31.66;40.47;100479.33;1667637;85;21551;-69
2022/07/05 07:55:13;;;;;;;6.80;5.30;;;;;;;31.81;40.49;100472.34;1670238;85;21022;-69
2022/07/05 07:57:40;;;;;;;7.73;5.83;;;;;;;31.97;40.83;100466.53;1656908;85;21500;-68
2022/07/05 08:00:08;;;;;;;6.55;5.12;;;;;;;32.09;40.34;100468.03;1653808;86;21671;-70
2022/07/05 08:02:36;;;;;;;6.23;5.63;;;;;;;32.20;40.01;100462.42;1651195;85;21023;-68
2022/07/05 08:05:05;;;;;;;5.58;4.90;;;;;;;32.37;39.58;100461.47;1659610;85;21190;-68
2022/07/05 08:07:32;;;;;;;6.85;5.12;;;;;;;32.48;37.90;100458.66;1656928;85;21695;-69
2022/07/05 08:09:58;;;;;;;6.53;5.17;;;;;;;32.45;37.44;100455.33;1658020;85;21096;-68
2022/07/05 08:12:25;;;;;;;7.60;4.92;;;;;;;32.49;37.90;100458.06;1659533;85;21109;-68
2022/07/05 08:14:51;;;;;;;5.67;5.00;;;;;;;32.61;37.64;100454.77;1659082;85;21124;-69
2022/07/05 08:17:20;;;;;;;5.67;5.08;;;;;;;32.74;37.21;100444.75;1658909;85;21341;-69
2022/07/05 08:22:31;;;;;;;6.10;4.33;;;;;;;33.04;37.13;100439.11;1668391;85;21489;-72
2022/07/05 08:24:58;;;;;;;7.97;5.10;;;;;;;33.24;36.72;100444.22;1657096;85;21090;-69
2022/07/05 08:27:25;;;;;;;6.05;5.15;;;;;;;33.31;35.14;100437.20;1658865;84;21085;-69
2022/07/05 08:29:53;;;;;;;6.65;4.42;;;;;;;33.40;34.82;100438.08;1658350;85;21113;-68
2022/07/05 08:32:19;;;;;;;6.97;4.80;;;;;;;33.47;34.25;100435.21;1658320;84;21066;-68
2022/07/05 08:34:45;;;;;;;6.40;4.37;;;;;;;33.43;33.48;100435.84;1658062;85;21089;-70
2022/07/05 08:37:12;;;;;;;4.65;3.90;;;;;;;33.39;32.63;100437.88;1659919;85;21111;-70
2022/07/05 08:39:39;;;;;;;7.00;4.40;;;;;;;33.34;32.93;100438.36;1658184;85;21144;-70
2022/07/05 08:42:09;;;;;;;6.22;4.50;;;;;;;33.41;33.40;100438.26;1659895;85;21767;-69
2022/07/05 08:44:38;;;;;;;5.30;3.95;;;;;;;33.54;32.33;100433.75;1658663;85;27597;-69
2022/07/05 08:47:08;;;;;;;6.72;4.15;;;;;;;33.67;32.32;100424.88;1661415;85;21161;-70
2022/07/05 08:49:34;;;;;;;5.55;4.20;;;;;;;33.72;32.71;100430.71;1667900;85;21045;-69
2022/07/05 08:52:03;;;;;;;6.70;4.22;;;;;;;33.80;32.92;100430.80;1661386;84;21133;-69
2022/07/05 08:54:31;;;;;;;4.20;3.80;;;;;;;33.95;32.80;100433.33;1655896;85;21328;-70
2022/07/05 08:56:58;;;;;;;5.83;3.77;;;;;;;34.03;31.74;100431.45;1654102;85;21064;-70
2022/07/05 08:59:24;;;;;;;5.20;3.70;;;;;;;34.08;32.00;100429.58;1654821;85;21149;-69
2022/07/05 09:01:51;;;;;;;5.40;4.12;;;;;;;34.24;31.10;100421.98;1652684;85;21089;-71
2022/07/05 09:04:17;;;;;;;6.15;3.58;;;;;;;34.38;30.12;100431.25;1649834;85;21228;-68
2022/07/05 09:06:46;;;;;;;4.30;3.72;;;;;;;34.39;29.44;100432.23;1645758;85;21626;-68
2022/07/05 09:09:13;;;;;;;6.70;3.83;;;;;;;34.37;29.71;100431.09;1649447;85;21141;-69
2022/07/05 09:11:41;;;;;;;4.15;3.67;;;;;;;34.39;30.27;100432.81;1651301;85;21062;-68
2022/07/05 09:14:24;;;;;;;5.25;3.55;;;;;;;34.47;29.71;100428.72;1651111;85;21125;-69
2022/07/05 09:16:51;;;;;;;4.50;3.95;;;;;;;34.51;30.08;100430.81;1650974;85;21083;-69
2022/07/05 09:19:18;;;;;;;6.42;4.37;;;;;;;34.71;29.31;100431.64;1650417;85;21561;-69
2022/07/05 09:21:45;;;;;;;4.65;3.90;;;;;;;35.10;29.00;100433.50;1662851;86;21026;-67
2022/07/05 09:24:12;;;;;;;5.92;4.10;;;;;;;35.10;29.00;100433.50;1663100;86;21101;-69
2022/07/05 09:26:48;;;;;;;5.28;4.15;;;;;;;35.05;28.07;100429.24;1661015;86;21018;-69
2022/07/05 09:29:19;;;;;;;5.12;3.80;;;;;;;34.85;28.41;100432.58;1657401;85;21207;-69
2022/07/05 09:31:48;;;;;;;4.85;3.92;;;;;;;34.74;28.72;100432.80;1652326;85;21199;-68
2022/07/05 09:34:17;;;;;;;5.03;3.98;;;;;;;34.88;28.69;100431.73;1651140;85;20986;-68
2022/07/05 09:37:04;;;;;;;4.95;4.20;;;;;;;35.12;28.82;100436.64;1652025;85;21064;-69
2022/07/05 09:39:38;;;;;;;5.35;4.25;;;;;;;35.37;27.79;100435.48;1651352;85;21039;-68
2022/07/05 09:42:20;;;;;;;7.45;4.10;;;;;;;35.35;26.86;100444.09;1649904;85;21148;-69
2022/07/05 09:44:56;;;;;;;5.17;3.80;;;;;;;34.85;27.70;100441.70;1651927;85;21269;-68
2022/07/05 09:47:24;;;;;;;5.97;4.20;;;;;;;34.64;28.76;100439.33;1648000;85;21074;-69
2022/07/05 09:49:52;;;;;;;4.40;4.00;;;;;;;34.50;28.27;100435.58;1649214;85;20971;-69
2022/07/05 09:52:36;;;;;;;4.92;4.42;;;;;;;34.38;29.66;100435.41;1652461;85;21609;-69
2022/07/05 09:55:04;;;;;;;4.55;3.90;;;;;;;34.30;29.92;100437.54;1650101;85;21805;-68
2022/07/05 09:57:34;;;;;;;4.87;4.05;;;;;;;34.45;29.12;100435.28;1651572;85;21143;-68
2022/07/05 10:00:19;;;;;;;4.58;3.85;;;;;;;34.60;28.93;100433.86;1647776;85;21088;-69
2022/07/05 10:03:00;;;;;;;6.70;4.10;;;;;;;34.84;28.59;100434.57;1644503;85;21152;-68
2022/07/05 10:05:25;;;;;;;4.75;3.67;;;;;;;34.93;27.81;100427.08;1649002;85;20981;-69
2022/07/05 10:07:57;;;;;;;5.30;4.17;;;;;;;34.97;28.25;100425.78;1651458;85;21679;-69
2022/07/05 10:10:26;;;;;;;5.08;3.67;;;;;;;35.07;28.01;100426.80;1649633;85;21173;-69
2022/07/05 10:12:57;;;;;;;5.28;4.00;;;;;;;35.10;28.05;100427.95;1660651;85;21086;-68
2022/07/05 10:15:31;;;;;;;;;;;;;;;35.08;27.56;100427.58;1662682;85;21062;-68
2022/07/05 10:18:17;;;;;;;5.67;4.05;;;;;;;35.14;26.89;100429.42;1646880;87;20186;-69
2022/07/05 10:20:44;;;;;;;7.15;3.77;;;;;;;35.29;27.23;100426.36;1671710;85;21115;-69
2022/07/05 10:23:15;;;;;;;4.22;3.83;;;;;;;35.36;26.89;100424.20;1658419;85;21007;-70
2022/07/05 10:25:49;;;;;;;5.78;4.10;;;;;;;35.33;27.33;100421.50;1669881;85;21624;-70
2022/07/05 10:28:17;;;;;;;4.42;3.55;;;;;;;35.29;26.76;100418.03;1670428;85;21081;-69
2022/07/05 10:30:51;;;;;;;4.17;3.52;;;;;;;35.29;26.76;100418.03;1669713;85;21051;-68
2022/07/05 10:33:26;;;;;;;5.05;3.67;;;;;;;35.44;26.01;100417.29;1659472;85;21030;-68
2022/07/05 10:35:48;;;;;;;4.75;3.65;;;;;;;35.66;26.85;100420.37;1663231;85;21286;-69
2022/07/05 10:38:15;;;;;;;4.33;3.70;;;;;;;35.80;26.42;100412.91;1661709;85;21121;-69
2022/07/05 10:40:43;;;;;;;5.55;4.30;;;;;;;35.80;26.80;100401.80;1670694;85;21069;-69
2022/07/05 10:43:10;;;;;;;4.42;4.03;;;;;;;35.89;26.43;100408.92;1647718;87;21096;-69
2022/07/05 10:45:40;;;;;;;5.15;4.30;;;;;;;36.02;26.09;100410.42;1674089;85;21075;-68
2022/07/05 10:48:24;;;;;;;5.03;4.10;;;;;;;36.12;25.95;100410.75;1669397;86;21144;-68
2022/07/05 10:51:13;;;;;;;4.80;4.30;;;;;;;36.15;26.51;100403.71;1658079;85;21119;-68
2022/07/05 10:53:47;;;;;;;4.75;4.17;;;;;;;36.07;26.69;100402.95;1648636;86;21076;-69
2022/07/05 10:56:14;;;;;;;5.40;4.22;;;;;;;36.09;25.71;100411.62;1648661;87;21106;-67
2022/07/05 10:58:46;;;;;;;6.12;4.33;;;;;;;35.85;26.07;100404.06;1648622;87;21060;-68
2022/07/05 11:01:24;;;;;;;4.20;3.80;;;;;;;35.84;26.55;100395.56;1648612;86;21170;-69
2022/07/05 11:04:06;;;;;;;5.60;4.03;;;;;;;35.94;26.61;100405.63;1648989;87;21101;-70
2022/07/05 11:06:46;;;;;;;4.67;3.92;;;;;;;36.05;25.65;100397.81;1649057;87;21137;-69
2022/07/05 11:09:16;;;;;;;6.67;4.10;;;;;;;36.26;25.89;100395.08;1648918;87;21061;-69
2022/07/05 11:11:53;;;;;;;4.28;3.87;;;;;;;36.29;24.91;100392.04;1657170;85;21819;-70
2022/07/05 11:14:25;;;;;;;4.35;3.47;;;;;;;36.26;24.81;100391.52;1674406;85;21142;-68
2022/07/05 11:17:15;;;;;;;4.20;3.75;;;;;;;36.20;25.48;100391.88;1675034;85;21053;-68
2022/07/05 11:20:07;;;;;;;5.30;4.10;;;;;;;36.38;24.77;100389.42;1675021;85;21034;-69
2022/07/05 11:22:36;;;;;;;5.33;4.20;;;;;;;36.53;24.26;100385.06;1675178;85;21149;-69
2022/07/05 11:25:04;;;;;;;6.60;4.80;;;;;;;36.56;25.26;100382.80;1655117;85;21066;-69
2022/07/05 11:27:33;;;;;;;6.45;4.83;;;;;;;36.70;25.51;100379.44;1648637;87;21128;-68
2022/07/05 11:30:00;;;;;;;4.92;4.25;;;;;;;36.84;25.32;100374.84;1648547;87;21026;-68
2022/07/05 11:32:36;;;;;;;6.78;4.30;;;;;;;36.95;24.83;100372.52;1648738;86;21129;-68
2022/07/05 11:35:20;;;;;;;5.28;3.80;;;;;;;37.00;24.72;100379.58;1648856;87;21093;-69
2022/07/05 11:38:06;;;;;;;4.87;4.45;;;;;;;37.05;23.79;100372.86;1649978;86;21466;-69
2022/07/05 11:40:39;;;;;;;6.15;4.80;;;;;;;36.67;24.32;100376.14;1656489;85;21250;-68
2022/07/05 11:43:09;;;;;;;6.17;4.40;;;;;;;36.40;24.95;100375.25;1653809;85;21092;-69
2022/07/05 11:45:38;;;;;;;7.42;4.20;;;;;;;36.54;25.19;100378.27;1665454;86;21114;-68
2022/07/05 11:48:05;;;;;;;4.35;3.95;;;;;;;36.78;25.09;100374.60;1662265;85;21064;-67
2022/07/05 11:50:35;;;;;;;5.45;4.40;;;;;;;36.89;24.02;100375.70;1654530;85;21007;-70
2022/07/05 11:53:02;;;;;;;5.75;4.50;;;;;;;36.83;24.40;100377.47;1663972;86;21814;-69
2022/07/05 11:55:37;;;;;;;4.55;4.10;;;;;;;36.80;24.88;100374.95;1665142;85;21020;-69
2022/07/05 11:58:08;;;;;;;7.70;4.47;;;;;;;36.88;24.69;100372.73;1653291;85;21648;-69
2022/07/05 12:00:44;;;;;;;4.72;4.22;;;;;;;36.91;24.38;100371.07;1648429;87;21101;-69
2022/07/05 12:03:21;;;;;;;4.72;4.08;;;;;;;36.99;24.14;100372.47;1647886;87;26887;-68
2022/07/05 12:05:58;;;;;;;5.12;4.62;;;;;;;36.98;24.37;100363.30;1648209;87;21911;-69